• Join FlightAware (Why Join?)
  • Login
  • US Flag 
07:54AM EDT


 

Airport Tracker/Info


-or-


 

Live Flight TrackerFlight Track Log ✈ EGF4260 ✈ 29-Apr-2013 ✈ KORD - KCVG

Flight Track Log - Related Links

Times and Time Zones

All times are in EDT time to prevent confusion due to time zone crossing. See the EGF4260 flight status page for this flight to view local times or setup timezone preferences in your user account.

Time Position Orientation Groundspeed Altitude Reporting Facility
EDT Latitude Longitude Course Direction KTS MPH feet Rate Location/Type
04:55PM 41.9500 -87.9000 159° South 163 188 1,600  Level Chicago TRACON
04:56PM 41.9000 -87.9000 180° South 197 227 3,800 1,920 Climbing Chicago TRACON
04:58PM 41.7197 -87.6012 157° South  Level Estimated
04:58PM 41.8097 -87.8783 170° South 241 277 6,300  Level Chicago Center
04:59PM 41.6322 -87.4999 156° South  Level Estimated
04:59PM 41.7300 -87.8106 148° Southeast 282 325 8,800  Level Chicago Center
05:00PM 41.5446 -87.3989 159° South  Level Estimated
05:00PM 41.6564 -87.7525 149° Southeast 304 350 11,100  Level Chicago Center
05:01PM 41.5794 -87.6947 151° Southeast 314 361 12,900 1,380 Climbing Chicago Center
05:02PM 41.4958 -87.6281 149° Southeast 343 395 14,000 960 Climbing Chicago Center
05:03PM 41.4039 -87.5569 150° Southeast 374 430 15,000 1,200 Climbing Chicago Center
05:04PM 41.2894 -87.4697 150° Southeast 393 452 16,500 1,440 Climbing Chicago Center
05:05PM 41.1922 -87.3972 151° Southeast 401 461 18,000 1,500 Climbing Chicago Center
05:06PM 41.0975 -87.3242 150° Southeast 397 457 19,600 1,440 Climbing Chicago Center
05:07PM 41.0003 -87.2517 151° Southeast 400 460 21,000 1,140 Climbing Chicago Center
05:08PM 40.9019 -87.1758 150° Southeast 410 472 22,000 900 Climbing Chicago Center
05:09PM 40.7997 -87.0994 150° Southeast 423 487 22,900 480 Climbing Chicago Center
05:10PM 40.6733 -87.0042 150° Southeast 443 510 23,000  Climbing Chicago Center
05:11PM 40.5619 -86.9206 150° Southeast 458 527 23,000  Level Chicago Center
05:12PM 40.4511 -86.8383 151° Southeast 457 526 23,000  Level Chicago Center
05:13PM 40.3406 -86.7558 150° Southeast 456 525 23,000  Level Chicago Center
05:14PM 40.2294 -86.6739 151° Southeast 456 525 23,000  Level Chicago Center
05:15PM 40.1006 -86.5792 151° Southeast 453 521 23,000  Level Chicago Center
05:16PM 40.0250 -86.5219 150° Southeast 457 526 23,000 -1,260 Level Indianapolis Center
05:17PM 39.9167 -86.4433 151° Southeast 446 513 20,800 -2,400 Descending Indianapolis Center
05:18PM 39.8000 -86.3333 144° Southeast 422 486 18,100 -2,400 Descending Indianapolis TRACON
05:19PM 39.7667 -86.2000 108° East 414 476 15,900 -1,680 Descending Indianapolis TRACON
05:20PM 39.7178 -86.0786 118° Southeast 408 470 14,700 -960 Descending Indianapolis Center
05:21PM 39.6725 -85.9456 114° Southeast 399 459 14,000 -420 Descending Indianapolis Center
05:22PM 39.6278 -85.8125 114° Southeast 398 458 13,900 -1,080 Descending Indianapolis Center
05:23PM 39.5769 -85.6606 113° Southeast 392 451 11,900 -1,440 Descending Indianapolis Center
05:24PM 39.5333 -85.5344 114° Southeast 383 441 11,000 -480 Descending Indianapolis Center
05:25PM 39.4797 -85.4144 120° Southeast 383 441 11,000  Level Indianapolis Center
05:26PM 39.4208 -85.3019 124° Southeast 378 435 11,100 -480 Climbing Indianapolis Center
05:27PM 39.3992 -85.1906 104° East 317 365 10,100 -1,260 Descending Indianapolis Center
05:28PM 39.3772 -85.0892 106° East 294 338 8,600 -1,620 Descending Indianapolis Center
05:29PM 39.3578 -84.9917 104° East 283 326 6,800 -1,500 Descending Indianapolis Center
05:30PM 39.3364 -84.8844 104° East 266 306 5,600 -1,140 Descending Indianapolis Center
05:31PM 39.3333 -84.8667 103° East 256 295 5,300 -480 Descending Cincinnati TRACON
05:32PM 39.3167 -84.7500 100° East 260 299 5,000 -600 Descending Cincinnati TRACON
05:33PM 39.2500 -84.7000 150° Southeast 254 292 4,100 -900 Descending Cincinnati TRACON